sensor_id;sensor_type;location;lat;lon;timestamp;P1;durP1;ratioP1;P2;durP2;ratioP2
37051;SDS011;22964;52.272;13.356;2023-12-22T00:01:21;3.63;;;1.08;;
37051;SDS011;22964;52.272;13.356;2023-12-22T00:03:47;6.50;;;1.63;;
37051;SDS011;22964;52.272;13.356;2023-12-22T00:06:12;6.15;;;1.20;;
37051;SDS011;22964;52.272;13.356;2023-12-22T00:08:38;5.53;;;1.00;;
37051;SDS011;22964;52.272;13.356;2023-12-22T00:11:04;6.45;;;1.13;;
37051;SDS011;22964;52.272;13.356;2023-12-22T00:13:30;8.05;;;1.70;;
37051;SDS011;22964;52.272;13.356;2023-12-22T00:15:58;9.38;;;1.60;;
37051;SDS011;22964;52.272;13.356;2023-12-22T00:18:24;7.80;;;1.60;;
37051;SDS011;22964;52.272;13.356;2023-12-22T00:20:49;8.00;;;1.77;;
37051;SDS011;22964;52.272;13.356;2023-12-22T00:23:15;9.07;;;1.92;;
37051;SDS011;22964;52.272;13.356;2023-12-22T00:25:41;8.15;;;1.55;;
37051;SDS011;22964;52.272;13.356;2023-12-22T00:28:06;8.15;;;1.52;;
37051;SDS011;22964;52.272;13.356;2023-12-22T00:30:32;10.50;;;2.30;;
37051;SDS011;22964;52.272;13.356;2023-12-22T00:32:58;5.57;;;1.33;;
37051;SDS011;22964;52.272;13.356;2023-12-22T00:35:23;4.63;;;1.20;;
37051;SDS011;22964;52.272;13.356;2023-12-22T00:37:49;5.43;;;1.63;;
37051;SDS011;22964;52.272;13.356;2023-12-22T00:40:15;5.07;;;1.23;;
37051;SDS011;22964;52.272;13.356;2023-12-22T00:42:41;2.13;;;0.95;;
37051;SDS011;22964;52.272;13.356;2023-12-22T00:45:06;3.45;;;1.02;;
37051;SDS011;22964;52.272;13.356;2023-12-22T00:47:32;2.97;;;1.13;;
37051;SDS011;22964;52.272;13.356;2023-12-22T00:50:01;5.07;;;1.20;;
37051;SDS011;22964;52.272;13.356;2023-12-22T00:52:27;4.15;;;1.70;;
37051;SDS011;22964;52.272;13.356;2023-12-22T00:54:53;5.53;;;1.33;;
37051;SDS011;22964;52.272;13.356;2023-12-22T00:57:19;3.50;;;1.10;;
37051;SDS011;22964;52.272;13.356;2023-12-22T00:59:44;5.93;;;1.10;;
37051;SDS011;22964;52.272;13.356;2023-12-22T01:02:16;6.20;;;1.85;;
37051;SDS011;22964;52.272;13.356;2023-12-22T01:04:42;4.65;;;1.10;;
37051;SDS011;22964;52.272;13.356;2023-12-22T01:07:08;5.93;;;1.17;;
37051;SDS011;22964;52.272;13.356;2023-12-22T01:09:34;6.97;;;1.40;;
37051;SDS011;22964;52.272;13.356;2023-12-22T01:12:02;5.82;;;1.40;;
37051;SDS011;22964;52.272;13.356;2023-12-22T01:14:29;5.60;;;1.20;;
37051;SDS011;22964;52.272;13.356;2023-12-22T01:16:55;8.05;;;1.83;;
37051;SDS011;22964;52.272;13.356;2023-12-22T01:19:21;5.20;;;1.30;;
37051;SDS011;22964;52.272;13.356;2023-12-22T01:21:47;8.73;;;1.40;;
37051;SDS011;22964;52.272;13.356;2023-12-22T01:24:13;7.55;;;1.80;;
37051;SDS011;22964;52.272;13.356;2023-12-22T01:26:39;5.13;;;1.20;;
37051;SDS011;22964;52.272;13.356;2023-12-22T01:29:04;6.20;;;1.30;;
37051;SDS011;22964;52.272;13.356;2023-12-22T01:31:30;9.07;;;1.77;;
37051;SDS011;22964;52.272;13.356;2023-12-22T01:33:56;7.35;;;1.55;;
37051;SDS011;22964;52.272;13.356;2023-12-22T01:36:21;8.85;;;1.50;;
37051;SDS011;22964;52.272;13.356;2023-12-22T01:38:47;12.20;;;1.83;;
37051;SDS011;22964;52.272;13.356;2023-12-22T01:41:13;10.55;;;1.85;;
37051;SDS011;22964;52.272;13.356;2023-12-22T01:43:39;8.88;;;1.60;;
37051;SDS011;22964;52.272;13.356;2023-12-22T01:46:04;6.78;;;1.30;;
37051;SDS011;22964;52.272;13.356;2023-12-22T01:48:32;10.00;;;1.80;;
37051;SDS011;22964;52.272;13.356;2023-12-22T01:50:59;9.00;;;1.50;;
37051;SDS011;22964;52.272;13.356;2023-12-22T01:53:27;9.75;;;1.90;;
37051;SDS011;22964;52.272;13.356;2023-12-22T01:55:54;7.55;;;1.83;;
37051;SDS011;22964;52.272;13.356;2023-12-22T01:58:22;6.00;;;1.60;;
37051;SDS011;22964;52.272;13.356;2023-12-22T02:00:48;10.23;;;1.65;;
37051;SDS011;22964;52.272;13.356;2023-12-22T02:03:14;11.23;;;2.20;;
37051;SDS011;22964;52.272;13.356;2023-12-22T02:05:42;9.40;;;1.90;;
37051;SDS011;22964;52.272;13.356;2023-12-22T02:08:09;10.88;;;2.10;;
37051;SDS011;22964;52.272;13.356;2023-12-22T02:10:36;8.68;;;1.95;;
37051;SDS011;22964;52.272;13.356;2023-12-22T02:13:02;8.40;;;1.50;;
37051;SDS011;22964;52.272;13.356;2023-12-22T02:15:29;10.90;;;1.95;;
37051;SDS011;22964;52.272;13.356;2023-12-22T02:17:58;9.18;;;1.95;;
37051;SDS011;22964;52.272;13.356;2023-12-22T02:20:35;5.72;;;1.55;;
37051;SDS011;22964;52.272;13.356;2023-12-22T02:23:02;11.30;;;1.70;;
37051;SDS011;22964;52.272;13.356;2023-12-22T02:25:28;6.15;;;1.55;;
37051;SDS011;22964;52.272;13.356;2023-12-22T02:27:55;9.65;;;1.48;;
37051;SDS011;22964;52.272;13.356;2023-12-22T02:30:27;8.45;;;1.30;;
37051;SDS011;22964;52.272;13.356;2023-12-22T02:33:04;11.55;;;1.67;;
37051;SDS011;22964;52.272;13.356;2023-12-22T02:35:33;5.75;;;1.40;;
37051;SDS011;22964;52.272;13.356;2023-12-22T02:38:02;5.82;;;1.48;;
37051;SDS011;22964;52.272;13.356;2023-12-22T02:40:29;4.72;;;1.25;;
37051;SDS011;22964;52.272;13.356;2023-12-22T02:42:56;5.78;;;1.02;;
37051;SDS011;22964;52.272;13.356;2023-12-22T02:45:21;7.38;;;1.40;;
37051;SDS011;22964;52.272;13.356;2023-12-22T02:47:47;5.80;;;1.38;;
37051;SDS011;22964;52.272;13.356;2023-12-22T02:50:14;6.38;;;1.30;;
37051;SDS011;22964;52.272;13.356;2023-12-22T02:52:41;7.72;;;1.50;;
37051;SDS011;22964;52.272;13.356;2023-12-22T02:55:06;8.70;;;1.40;;
37051;SDS011;22964;52.272;13.356;2023-12-22T02:57:33;7.25;;;1.20;;
37051;SDS011;22964;52.272;13.356;2023-12-22T02:59:58;5.30;;;1.38;;
37051;SDS011;22964;52.272;13.356;2023-12-22T03:02:24;8.52;;;1.80;;
37051;SDS011;22964;52.272;13.356;2023-12-22T03:04:50;9.65;;;1.30;;
37051;SDS011;22964;52.272;13.356;2023-12-22T03:07:16;6.43;;;1.20;;
37051;SDS011;22964;52.272;13.356;2023-12-22T03:09:42;7.78;;;1.27;;
37051;SDS011;22964;52.272;13.356;2023-12-22T03:12:08;6.20;;;1.20;;
37051;SDS011;22964;52.272;13.356;2023-12-22T03:14:34;5.13;;;1.23;;
37051;SDS011;22964;52.272;13.356;2023-12-22T03:17:04;6.00;;;1.13;;
37051;SDS011;22964;52.272;13.356;2023-12-22T03:19:31;8.63;;;1.60;;
37051;SDS011;22964;52.272;13.356;2023-12-22T03:21:57;7.80;;;1.60;;
37051;SDS011;22964;52.272;13.356;2023-12-22T03:24:24;7.47;;;1.50;;
37051;SDS011;22964;52.272;13.356;2023-12-22T03:26:51;9.45;;;1.40;;
37051;SDS011;22964;52.272;13.356;2023-12-22T03:29:18;7.82;;;1.30;;
37051;SDS011;22964;52.272;13.356;2023-12-22T03:31:44;5.20;;;1.50;;
37051;SDS011;22964;52.272;13.356;2023-12-22T03:34:11;7.60;;;1.20;;
37051;SDS011;22964;52.272;13.356;2023-12-22T03:36:37;11.43;;;1.63;;
37051;SDS011;22964;52.272;13.356;2023-12-22T03:39:03;8.27;;;1.42;;
37051;SDS011;22964;52.272;13.356;2023-12-22T03:41:29;6.78;;;2.10;;
37051;SDS011;22964;52.272;13.356;2023-12-22T03:43:55;3.53;;;1.20;;
37051;SDS011;22964;52.272;13.356;2023-12-22T03:46:21;6.60;;;1.30;;
37051;SDS011;22964;52.272;13.356;2023-12-22T03:48:47;4.88;;;1.05;;
37051;SDS011;22964;52.272;13.356;2023-12-22T03:51:12;5.20;;;1.25;;
37051;SDS011;22964;52.272;13.356;2023-12-22T03:53:40;4.20;;;1.00;;
37051;SDS011;22964;52.272;13.356;2023-12-22T03:56:07;5.60;;;1.13;;
37051;SDS011;22964;52.272;13.356;2023-12-22T03:58:34;5.93;;;1.00;;
37051;SDS011;22964;52.272;13.356;2023-12-22T04:01:00;3.22;;;0.85;;
37051;SDS011;22964;52.272;13.356;2023-12-22T04:03:26;6.03;;;1.52;;
37051;SDS011;22964;52.272;13.356;2023-12-22T04:05:52;6.07;;;0.93;;
37051;SDS011;22964;52.272;13.356;2023-12-22T04:08:17;3.17;;;0.90;;
37051;SDS011;22964;52.272;13.356;2023-12-22T04:10:45;3.83;;;0.90;;
37051;SDS011;22964;52.272;13.356;2023-12-22T04:13:10;3.50;;;1.02;;
37051;SDS011;22964;52.272;13.356;2023-12-22T04:15:36;4.97;;;1.10;;
37051;SDS011;22964;52.272;13.356;2023-12-22T04:18:02;5.15;;;1.10;;
37051;SDS011;22964;52.272;13.356;2023-12-22T04:20:28;3.55;;;1.02;;
37051;SDS011;22964;52.272;13.356;2023-12-22T04:22:53;5.25;;;1.00;;
37051;SDS011;22964;52.272;13.356;2023-12-22T04:25:19;2.50;;;0.90;;
37051;SDS011;22964;52.272;13.356;2023-12-22T04:27:45;5.85;;;1.20;;
37051;SDS011;22964;52.272;13.356;2023-12-22T04:30:10;4.03;;;1.20;;
37051;SDS011;22964;52.272;13.356;2023-12-22T04:32:36;4.40;;;1.10;;
37051;SDS011;22964;52.272;13.356;2023-12-22T04:35:02;7.03;;;1.10;;
37051;SDS011;22964;52.272;13.356;2023-12-22T04:37:28;3.65;;;0.90;;
37051;SDS011;22964;52.272;13.356;2023-12-22T04:39:54;6.40;;;1.00;;
37051;SDS011;22964;52.272;13.356;2023-12-22T04:42:20;4.22;;;1.00;;
37051;SDS011;22964;52.272;13.356;2023-12-22T04:44:45;6.53;;;1.25;;
37051;SDS011;22964;52.272;13.356;2023-12-22T04:47:11;7.95;;;1.02;;
37051;SDS011;22964;52.272;13.356;2023-12-22T04:49:38;3.53;;;1.10;;
37051;SDS011;22964;52.272;13.356;2023-12-22T04:52:03;5.93;;;1.00;;
37051;SDS011;22964;52.272;13.356;2023-12-22T04:54:29;5.50;;;1.10;;
37051;SDS011;22964;52.272;13.356;2023-12-22T04:56:55;3.05;;;0.90;;
37051;SDS011;22964;52.272;13.356;2023-12-22T04:59:21;2.67;;;0.93;;
37051;SDS011;22964;52.272;13.356;2023-12-22T05:01:46;4.50;;;1.33;;
37051;SDS011;22964;52.272;13.356;2023-12-22T05:04:12;2.40;;;0.73;;
37051;SDS011;22964;52.272;13.356;2023-12-22T05:06:38;3.50;;;0.77;;
37051;SDS011;22964;52.272;13.356;2023-12-22T05:09:04;3.08;;;0.80;;
37051;SDS011;22964;52.272;13.356;2023-12-22T05:11:29;1.77;;;0.60;;
37051;SDS011;22964;52.272;13.356;2023-12-22T05:13:55;2.22;;;0.75;;
37051;SDS011;22964;52.272;13.356;2023-12-22T05:16:21;2.47;;;0.80;;
37051;SDS011;22964;52.272;13.356;2023-12-22T05:18:46;2.70;;;0.65;;
37051;SDS011;22964;52.272;13.356;2023-12-22T05:21:12;2.42;;;0.70;;
37051;SDS011;22964;52.272;13.356;2023-12-22T05:23:41;2.55;;;0.90;;
37051;SDS011;22964;52.272;13.356;2023-12-22T05:26:07;1.88;;;0.73;;
37051;SDS011;22964;52.272;13.356;2023-12-22T05:28:33;3.15;;;0.60;;
37051;SDS011;22964;52.272;13.356;2023-12-22T05:30:59;4.05;;;1.23;;
37051;SDS011;22964;52.272;13.356;2023-12-22T05:33:24;4.72;;;0.98;;
37051;SDS011;22964;52.272;13.356;2023-12-22T05:35:50;4.18;;;0.90;;
37051;SDS011;22964;52.272;13.356;2023-12-22T05:38:17;2.90;;;0.75;;
37051;SDS011;22964;52.272;13.356;2023-12-22T05:40:42;2.45;;;0.93;;
37051;SDS011;22964;52.272;13.356;2023-12-22T05:43:08;4.15;;;1.00;;
37051;SDS011;22964;52.272;13.356;2023-12-22T05:45:34;9.00;;;1.10;;
37051;SDS011;22964;52.272;13.356;2023-12-22T05:47:59;7.05;;;1.73;;
37051;SDS011;22964;52.272;13.356;2023-12-22T05:50:25;6.70;;;1.00;;
37051;SDS011;22964;52.272;13.356;2023-12-22T05:52:51;4.40;;;1.00;;
37051;SDS011;22964;52.272;13.356;2023-12-22T05:55:17;6.18;;;1.35;;
37051;SDS011;22964;52.272;13.356;2023-12-22T05:57:42;5.18;;;1.05;;
37051;SDS011;22964;52.272;13.356;2023-12-22T06:00:08;4.30;;;1.05;;
37051;SDS011;22964;52.272;13.356;2023-12-22T06:02:36;4.55;;;0.90;;
37051;SDS011;22964;52.272;13.356;2023-12-22T06:05:03;4.43;;;0.82;;
37051;SDS011;22964;52.272;13.356;2023-12-22T06:07:29;5.43;;;0.80;;
37051;SDS011;22964;52.272;13.356;2023-12-22T06:09:55;4.72;;;0.63;;
37051;SDS011;22964;52.272;13.356;2023-12-22T06:12:20;4.82;;;0.65;;
37051;SDS011;22964;52.272;13.356;2023-12-22T06:14:46;3.55;;;0.80;;
37051;SDS011;22964;52.272;13.356;2023-12-22T06:17:12;2.22;;;0.50;;
37051;SDS011;22964;52.272;13.356;2023-12-22T06:19:37;1.95;;;0.70;;
37051;SDS011;22964;52.272;13.356;2023-12-22T06:22:03;2.85;;;0.70;;
37051;SDS011;22964;52.272;13.356;2023-12-22T06:24:30;1.27;;;0.50;;
37051;SDS011;22964;52.272;13.356;2023-12-22T06:26:56;2.42;;;0.60;;
37051;SDS011;22964;52.272;13.356;2023-12-22T06:29:22;0.20;;;0.20;;
37051;SDS011;22964;52.272;13.356;2023-12-22T06:31:48;2.42;;;0.50;;
37051;SDS011;22964;52.272;13.356;2023-12-22T06:34:16;3.08;;;0.50;;
37051;SDS011;22964;52.272;13.356;2023-12-22T06:36:42;2.38;;;0.60;;
37051;SDS011;22964;52.272;13.356;2023-12-22T06:39:08;0.65;;;0.50;;
37051;SDS011;22964;52.272;13.356;2023-12-22T06:41:34;2.17;;;0.60;;
37051;SDS011;22964;52.272;13.356;2023-12-22T06:43:59;1.88;;;0.75;;
37051;SDS011;22964;52.272;13.356;2023-12-22T06:46:26;1.65;;;0.70;;
37051;SDS011;22964;52.272;13.356;2023-12-22T06:48:52;1.52;;;0.80;;
37051;SDS011;22964;52.272;13.356;2023-12-22T06:53:52;1.73;;;0.70;;
37051;SDS011;22964;52.272;13.356;2023-12-22T06:56:20;2.13;;;0.90;;
37051;SDS011;22964;52.272;13.356;2023-12-22T06:58:47;3.45;;;0.90;;
37051;SDS011;22964;52.272;13.356;2023-12-22T07:01:30;1.88;;;0.88;;
37051;SDS011;22964;52.272;13.356;2023-12-22T07:03:56;3.90;;;1.17;;
37051;SDS011;22964;52.272;13.356;2023-12-22T07:06:23;3.05;;;0.70;;
37051;SDS011;22964;52.272;13.356;2023-12-22T07:08:56;2.10;;;0.70;;
37051;SDS011;22964;52.272;13.356;2023-12-22T07:11:22;2.67;;;0.70;;
37051;SDS011;22964;52.272;13.356;2023-12-22T07:13:49;2.92;;;0.70;;
37051;SDS011;22964;52.272;13.356;2023-12-22T07:16:15;2.42;;;1.20;;
37051;SDS011;22964;52.272;13.356;2023-12-22T07:18:41;3.38;;;0.90;;
37051;SDS011;22964;52.272;13.356;2023-12-22T07:21:07;3.45;;;1.10;;
37051;SDS011;22964;52.272;13.356;2023-12-22T07:23:33;4.60;;;0.93;;
37051;SDS011;22964;52.272;13.356;2023-12-22T07:25:59;4.22;;;1.10;;
37051;SDS011;22964;52.272;13.356;2023-12-22T07:28:25;3.65;;;1.13;;
37051;SDS011;22964;52.272;13.356;2023-12-22T07:30:52;5.70;;;1.20;;
37051;SDS011;22964;52.272;13.356;2023-12-22T07:33:19;3.47;;;0.90;;
37051;SDS011;22964;52.272;13.356;2023-12-22T07:35:44;4.25;;;0.93;;
37051;SDS011;22964;52.272;13.356;2023-12-22T07:38:10;2.90;;;0.90;;
37051;SDS011;22964;52.272;13.356;2023-12-22T07:40:37;6.50;;;1.23;;
37051;SDS011;22964;52.272;13.356;2023-12-22T07:43:04;4.93;;;1.10;;
37051;SDS011;22964;52.272;13.356;2023-12-22T07:45:30;4.43;;;0.88;;
37051;SDS011;22964;52.272;13.356;2023-12-22T07:47:58;4.70;;;1.00;;
37051;SDS011;22964;52.272;13.356;2023-12-22T07:50:24;4.82;;;1.05;;
37051;SDS011;22964;52.272;13.356;2023-12-22T07:52:50;5.55;;;1.00;;
37051;SDS011;22964;52.272;13.356;2023-12-22T07:55:16;4.85;;;1.00;;
37051;SDS011;22964;52.272;13.356;2023-12-22T07:57:42;5.13;;;1.30;;
37051;SDS011;22964;52.272;13.356;2023-12-22T08:00:08;4.55;;;1.23;;
37051;SDS011;22964;52.272;13.356;2023-12-22T08:02:40;6.18;;;1.10;;
37051;SDS011;22964;52.272;13.356;2023-12-22T08:05:08;3.30;;;0.85;;
37051;SDS011;22964;52.272;13.356;2023-12-22T08:07:35;3.92;;;1.30;;
37051;SDS011;22964;52.272;13.356;2023-12-22T08:10:03;4.72;;;1.25;;
37051;SDS011;22964;52.272;13.356;2023-12-22T08:12:29;4.63;;;1.60;;
37051;SDS011;22964;52.272;13.356;2023-12-22T08:14:58;3.00;;;1.00;;
37051;SDS011;22964;52.272;13.356;2023-12-22T08:17:24;4.07;;;0.82;;
37051;SDS011;22964;52.272;13.356;2023-12-22T08:19:50;4.40;;;1.15;;
37051;SDS011;22964;52.272;13.356;2023-12-22T08:22:16;5.15;;;1.33;;
37051;SDS011;22964;52.272;13.356;2023-12-22T08:24:42;3.85;;;0.93;;
37051;SDS011;22964;52.272;13.356;2023-12-22T08:27:08;4.55;;;0.95;;
37051;SDS011;22964;52.272;13.356;2023-12-22T08:29:34;4.38;;;1.40;;
37051;SDS011;22964;52.272;13.356;2023-12-22T08:32:00;2.72;;;1.10;;
37051;SDS011;22964;52.272;13.356;2023-12-22T08:34:26;4.90;;;1.75;;
37051;SDS011;22964;52.272;13.356;2023-12-22T08:36:52;5.40;;;1.15;;
37051;SDS011;22964;52.272;13.356;2023-12-22T08:39:18;4.72;;;1.08;;
37051;SDS011;22964;52.272;13.356;2023-12-22T08:41:44;2.38;;;0.88;;
37051;SDS011;22964;52.272;13.356;2023-12-22T08:44:11;2.97;;;0.90;;
37051;SDS011;22964;52.272;13.356;2023-12-22T08:46:39;3.92;;;1.20;;
37051;SDS011;22964;52.272;13.356;2023-12-22T08:49:05;4.50;;;1.40;;
37051;SDS011;22964;52.272;13.356;2023-12-22T08:51:32;2.97;;;1.10;;
37051;SDS011;22964;52.272;13.356;2023-12-22T08:54:01;4.18;;;1.00;;
37051;SDS011;22964;52.272;13.356;2023-12-22T08:56:26;4.38;;;1.10;;
37051;SDS011;22964;52.272;13.356;2023-12-22T08:58:53;4.18;;;1.00;;
37051;SDS011;22964;52.272;13.356;2023-12-22T09:01:24;6.20;;;1.10;;
37051;SDS011;22964;52.272;13.356;2023-12-22T09:03:50;4.82;;;1.20;;
37051;SDS011;22964;52.272;13.356;2023-12-22T09:06:18;4.18;;;1.10;;
37051;SDS011;22964;52.272;13.356;2023-12-22T09:08:47;7.95;;;1.30;;
37051;SDS011;22964;52.272;13.356;2023-12-22T09:11:17;5.43;;;1.20;;
37051;SDS011;22964;52.272;13.356;2023-12-22T09:13:44;8.27;;;1.20;;
37051;SDS011;22964;52.272;13.356;2023-12-22T09:16:10;8.15;;;1.10;;
37051;SDS011;22964;52.272;13.356;2023-12-22T09:18:36;6.07;;;1.20;;
37051;SDS011;22964;52.272;13.356;2023-12-22T09:21:02;7.50;;;1.30;;
37051;SDS011;22964;52.272;13.356;2023-12-22T09:23:28;6.82;;;1.67;;
37051;SDS011;22964;52.272;13.356;2023-12-22T09:25:54;7.00;;;1.20;;
37051;SDS011;22964;52.272;13.356;2023-12-22T09:28:20;8.77;;;1.42;;
37051;SDS011;22964;52.272;13.356;2023-12-22T09:30:46;10.25;;;1.60;;
37051;SDS011;22964;52.272;13.356;2023-12-22T09:33:12;8.48;;;1.60;;
37051;SDS011;22964;52.272;13.356;2023-12-22T09:35:38;8.75;;;1.50;;
37051;SDS011;22964;52.272;13.356;2023-12-22T09:38:10;10.20;;;1.60;;
37051;SDS011;22964;52.272;13.356;2023-12-22T09:40:37;11.43;;;1.48;;
37051;SDS011;22964;52.272;13.356;2023-12-22T09:43:04;8.40;;;1.73;;
37051;SDS011;22964;52.272;13.356;2023-12-22T09:45:34;8.65;;;1.30;;
37051;SDS011;22964;52.272;13.356;2023-12-22T09:48:02;10.45;;;1.60;;
37051;SDS011;22964;52.272;13.356;2023-12-22T09:50:30;10.93;;;1.70;;
37051;SDS011;22964;52.272;13.356;2023-12-22T09:52:57;7.82;;;1.85;;
37051;SDS011;22964;52.272;13.356;2023-12-22T09:55:23;11.65;;;1.92;;
37051;SDS011;22964;52.272;13.356;2023-12-22T09:57:52;8.15;;;1.40;;
37051;SDS011;22964;52.272;13.356;2023-12-22T10:00:19;10.20;;;1.40;;
37051;SDS011;22964;52.272;13.356;2023-12-22T10:02:47;7.88;;;1.67;;
37051;SDS011;22964;52.272;13.356;2023-12-22T10:05:15;7.38;;;1.42;;
37051;SDS011;22964;52.272;13.356;2023-12-22T10:07:44;9.52;;;1.90;;
37051;SDS011;22964;52.272;13.356;2023-12-22T10:10:11;12.45;;;1.80;;
37051;SDS011;22964;52.272;13.356;2023-12-22T10:12:37;6.80;;;1.45;;
37051;SDS011;22964;52.272;13.356;2023-12-22T10:15:05;8.70;;;1.60;;
37051;SDS011;22964;52.272;13.356;2023-12-22T10:17:33;12.50;;;1.73;;
37051;SDS011;22964;52.272;13.356;2023-12-22T10:19:59;13.35;;;2.28;;
37051;SDS011;22964;52.272;13.356;2023-12-22T10:22:24;9.23;;;1.80;;
37051;SDS011;22964;52.272;13.356;2023-12-22T10:24:50;10.20;;;1.77;;
37051;SDS011;22964;52.272;13.356;2023-12-22T10:27:16;13.70;;;1.88;;
37051;SDS011;22964;52.272;13.356;2023-12-22T10:29:56;10.15;;;1.38;;
37051;SDS011;22964;52.272;13.356;2023-12-22T10:32:22;7.60;;;1.63;;
37051;SDS011;22964;52.272;13.356;2023-12-22T10:34:48;8.68;;;1.55;;
37051;SDS011;22964;52.272;13.356;2023-12-22T10:37:16;7.60;;;1.50;;
37051;SDS011;22964;52.272;13.356;2023-12-22T10:39:42;10.73;;;1.70;;
37051;SDS011;22964;52.272;13.356;2023-12-22T10:42:08;5.40;;;1.38;;
37051;SDS011;22964;52.272;13.356;2023-12-22T10:44:35;8.65;;;1.50;;
37051;SDS011;22964;52.272;13.356;2023-12-22T10:47:04;6.57;;;1.58;;
37051;SDS011;22964;52.272;13.356;2023-12-22T10:49:30;6.63;;;1.20;;
37051;SDS011;22964;52.272;13.356;2023-12-22T10:51:56;7.80;;;1.55;;
37051;SDS011;22964;52.272;13.356;2023-12-22T10:54:22;5.30;;;1.08;;
37051;SDS011;22964;52.272;13.356;2023-12-22T10:56:48;5.78;;;1.30;;
37051;SDS011;22964;52.272;13.356;2023-12-22T10:59:21;6.30;;;1.17;;
37051;SDS011;22964;52.272;13.356;2023-12-22T11:01:48;5.55;;;1.60;;
37051;SDS011;22964;52.272;13.356;2023-12-22T11:04:17;9.50;;;1.58;;
37051;SDS011;22964;52.272;13.356;2023-12-22T11:06:45;5.07;;;1.13;;
37051;SDS011;22964;52.272;13.356;2023-12-22T11:09:14;10.48;;;1.55;;
37051;SDS011;22964;52.272;13.356;2023-12-22T11:11:42;7.90;;;1.50;;
37051;SDS011;22964;52.272;13.356;2023-12-22T11:14:09;7.50;;;1.20;;
37051;SDS011;22964;52.272;13.356;2023-12-22T11:16:36;7.38;;;1.30;;
37051;SDS011;22964;52.272;13.356;2023-12-22T11:19:03;7.82;;;1.73;;
37051;SDS011;22964;52.272;13.356;2023-12-22T11:21:29;7.50;;;1.52;;
37051;SDS011;22964;52.272;13.356;2023-12-22T11:23:55;7.90;;;1.48;;
37051;SDS011;22964;52.272;13.356;2023-12-22T11:26:23;4.38;;;1.17;;
37051;SDS011;22964;52.272;13.356;2023-12-22T11:28:50;6.45;;;1.35;;
37051;SDS011;22964;52.272;13.356;2023-12-22T11:31:16;7.97;;;1.65;;
37051;SDS011;22964;52.272;13.356;2023-12-22T11:33:43;7.82;;;1.42;;
37051;SDS011;22964;52.272;13.356;2023-12-22T11:36:11;6.60;;;1.45;;
37051;SDS011;22964;52.272;13.356;2023-12-22T11:38:38;6.78;;;1.30;;
37051;SDS011;22964;52.272;13.356;2023-12-22T11:41:13;8.82;;;1.42;;
37051;SDS011;22964;52.272;13.356;2023-12-22T11:43:43;5.03;;;1.38;;
37051;SDS011;22964;52.272;13.356;2023-12-22T11:46:10;8.20;;;1.70;;
37051;SDS011;22964;52.272;13.356;2023-12-22T11:48:36;6.40;;;1.40;;
37051;SDS011;22964;52.272;13.356;2023-12-22T11:51:11;9.00;;;1.40;;
37051;SDS011;22964;52.272;13.356;2023-12-22T11:53:40;6.20;;;1.30;;
37051;SDS011;22964;52.272;13.356;2023-12-22T11:56:06;9.10;;;1.20;;
37051;SDS011;22964;52.272;13.356;2023-12-22T11:58:43;7.13;;;1.10;;
37051;SDS011;22964;52.272;13.356;2023-12-22T12:01:21;3.53;;;1.08;;
37051;SDS011;22964;52.272;13.356;2023-12-22T12:03:51;4.38;;;1.20;;
37051;SDS011;22964;52.272;13.356;2023-12-22T12:08:56;6.78;;;1.38;;
37051;SDS011;22964;52.272;13.356;2023-12-22T12:11:23;9.63;;;1.30;;
37051;SDS011;22964;52.272;13.356;2023-12-22T12:14:09;6.47;;;1.48;;
37051;SDS011;22964;52.272;13.356;2023-12-22T12:16:38;8.00;;;1.17;;
37051;SDS011;22964;52.272;13.356;2023-12-22T12:19:07;8.93;;;1.30;;
37051;SDS011;22964;52.272;13.356;2023-12-22T12:21:34;6.35;;;1.35;;
37051;SDS011;22964;52.272;13.356;2023-12-22T12:24:00;9.07;;;1.88;;
37051;SDS011;22964;52.272;13.356;2023-12-22T12:26:26;8.23;;;1.42;;
37051;SDS011;22964;52.272;13.356;2023-12-22T12:28:53;7.10;;;1.50;;
37051;SDS011;22964;52.272;13.356;2023-12-22T12:31:21;7.22;;;1.48;;
37051;SDS011;22964;52.272;13.356;2023-12-22T12:34:02;7.10;;;1.17;;
37051;SDS011;22964;52.272;13.356;2023-12-22T12:36:33;8.57;;;1.70;;
37051;SDS011;22964;52.272;13.356;2023-12-22T12:39:01;9.70;;;1.48;;
37051;SDS011;22964;52.272;13.356;2023-12-22T12:41:36;6.68;;;1.50;;
37051;SDS011;22964;52.272;13.356;2023-12-22T12:44:06;7.50;;;1.55;;
37051;SDS011;22964;52.272;13.356;2023-12-22T12:46:39;8.23;;;1.60;;
37051;SDS011;22964;52.272;13.356;2023-12-22T12:49:10;8.18;;;1.52;;
37051;SDS011;22964;52.272;13.356;2023-12-22T12:51:43;6.80;;;1.30;;
37051;SDS011;22964;52.272;13.356;2023-12-22T12:54:10;6.82;;;1.58;;
37051;SDS011;22964;52.272;13.356;2023-12-22T12:56:45;5.63;;;1.40;;
37051;SDS011;22964;52.272;13.356;2023-12-22T12:59:13;8.55;;;1.70;;
37051;SDS011;22964;52.272;13.356;2023-12-22T13:01:40;8.88;;;1.40;;
37051;SDS011;22964;52.272;13.356;2023-12-22T13:04:06;6.95;;;1.60;;
37051;SDS011;22964;52.272;13.356;2023-12-22T13:06:32;6.57;;;1.67;;
37051;SDS011;22964;52.272;13.356;2023-12-22T13:08:59;6.32;;;1.40;;
37051;SDS011;22964;52.272;13.356;2023-12-22T13:11:31;4.82;;;1.17;;
37051;SDS011;22964;52.272;13.356;2023-12-22T13:13:58;8.35;;;1.40;;
37051;SDS011;22964;52.272;13.356;2023-12-22T13:16:24;11.63;;;1.67;;
37051;SDS011;22964;52.272;13.356;2023-12-22T13:18:52;7.72;;;1.50;;
37051;SDS011;22964;52.272;13.356;2023-12-22T13:21:18;7.63;;;1.52;;
37051;SDS011;22964;52.272;13.356;2023-12-22T13:23:43;11.18;;;1.30;;
37051;SDS011;22964;52.272;13.356;2023-12-22T13:26:19;8.95;;;1.73;;
37051;SDS011;22964;52.272;13.356;2023-12-22T13:28:46;9.75;;;1.55;;
37051;SDS011;22964;52.272;13.356;2023-12-22T13:31:14;9.23;;;1.70;;
37051;SDS011;22964;52.272;13.356;2023-12-22T13:33:43;10.70;;;1.80;;
37051;SDS011;22964;52.272;13.356;2023-12-22T13:36:09;7.95;;;1.60;;
37051;SDS011;22964;52.272;13.356;2023-12-22T13:38:35;10.30;;;1.75;;
37051;SDS011;22964;52.272;13.356;2023-12-22T13:41:02;8.63;;;1.60;;
37051;SDS011;22964;52.272;13.356;2023-12-22T13:43:34;7.93;;;1.52;;
37051;SDS011;22964;52.272;13.356;2023-12-22T13:46:00;9.27;;;1.40;;
37051;SDS011;22964;52.272;13.356;2023-12-22T13:48:25;5.60;;;1.13;;
37051;SDS011;22964;52.272;13.356;2023-12-22T13:50:58;6.70;;;1.48;;
37051;SDS011;22964;52.272;13.356;2023-12-22T13:53:25;6.05;;;1.02;;
37051;SDS011;22964;52.272;13.356;2023-12-22T13:56:09;6.22;;;1.30;;
37051;SDS011;22964;52.272;13.356;2023-12-22T13:58:42;7.22;;;1.27;;
37051;SDS011;22964;52.272;13.356;2023-12-22T14:01:12;7.28;;;1.20;;
37051;SDS011;22964;52.272;13.356;2023-12-22T14:03:41;4.15;;;1.13;;
37051;SDS011;22964;52.272;13.356;2023-12-22T14:06:13;4.32;;;1.00;;
37051;SDS011;22964;52.272;13.356;2023-12-22T14:08:39;3.17;;;1.10;;
37051;SDS011;22964;52.272;13.356;2023-12-22T14:11:06;4.75;;;1.00;;
37051;SDS011;22964;52.272;13.356;2023-12-22T14:13:32;6.00;;;1.30;;
37051;SDS011;22964;52.272;13.356;2023-12-22T14:15:59;4.97;;;1.27;;
37051;SDS011;22964;52.272;13.356;2023-12-22T14:18:25;6.15;;;1.05;;
37051;SDS011;22964;52.272;13.356;2023-12-22T14:20:50;4.70;;;1.20;;
37051;SDS011;22964;52.272;13.356;2023-12-22T14:23:16;5.47;;;1.50;;
37051;SDS011;22964;52.272;13.356;2023-12-22T14:25:42;5.43;;;1.17;;
37051;SDS011;22964;52.272;13.356;2023-12-22T14:28:08;3.60;;;1.30;;
37051;SDS011;22964;52.272;13.356;2023-12-22T14:30:34;6.13;;;1.88;;
37051;SDS011;22964;52.272;13.356;2023-12-22T14:32:59;6.07;;;1.70;;
37051;SDS011;22964;52.272;13.356;2023-12-22T14:35:25;5.20;;;1.45;;
37051;SDS011;22964;52.272;13.356;2023-12-22T14:37:51;3.88;;;1.13;;